Time;durP1;ratioP1;P1;durP2;ratioP2;P2;SDS_P1;SDS_P2;PMS_P1;PMS_P2;Temp;Humidity;BMP_temperature;BMP_pressure;BME280_temperature;BME280_humidity;BME280_pressure;Samples;Min_cycle;Max_cycle;Signal;HPM_P1;HPM_P2
2022/11/17 00:00:10;;;;;;;12.57;9.18;;;;;;;-0.68;72.68;99246.56;4990960;28;20026;-66
2022/11/17 00:02:35;;;;;;;11.63;9.02;;;;;;;-0.75;72.49;99239.69;4985349;28;20373;-65
2022/11/17 00:05:01;;;;;;;12.07;8.43;;;;;;;-0.61;73.08;99240.75;4985742;28;20035;-65
2022/11/17 00:07:29;;;;;;;15.68;9.20;;;;;;;-0.61;72.68;99235.69;4985253;28;20038;-66
2022/11/17 00:09:55;;;;;;;12.82;8.70;;;;;;;-0.52;73.85;99233.25;4985196;28;20023;-67
2022/11/17 00:15:05;;;;;;;17.05;9.05;;;;;;;-0.47;74.22;99235.91;4985319;28;20101;-66
2022/11/17 00:17:30;;;;;;;13.48;8.77;;;;;;;-0.44;72.59;99235.94;4985341;28;20030;-67
2022/11/17 00:22:40;;;;;;;13.98;9.75;;;;;;;-0.44;73.07;99224.91;4986001;28;20089;-66
2022/11/17 00:25:06;;;;;;;12.50;8.73;;;;;;;-0.44;74.13;99212.19;4985080;28;20038;-65
2022/11/17 00:27:32;;;;;;;14.07;9.25;;;;;;;-0.43;73.12;99213.91;4984816;28;20030;-65
2022/11/17 00:29:57;;;;;;;17.73;10.02;;;;;;;-0.46;72.90;99207.06;4984894;28;20054;-65
2022/11/17 00:35:12;;;;;;;14.23;9.88;;;;;;;-0.36;74.78;99211.47;5011153;28;20093;-65
2022/11/17 00:38:14;;;;;;;16.08;9.70;;;;;;;-0.46;74.01;99186.72;4982976;28;20023;-65
2022/11/17 00:40:24;;;;;;;18.20;10.00;;;;;;;-0.39;74.41;99200.41;4984618;28;20027;-66
2022/11/17 00:42:50;;;;;;;16.63;10.05;;;;;;;-0.30;74.45;99208.19;5004289;28;20089;-66
2022/11/17 00:45:15;;;;;;;14.80;9.27;;;;;;;-0.27;73.80;99202.25;4989752;28;20027;-65
2022/11/17 00:47:42;;;;;;;14.20;9.25;;;;;;;-0.32;73.01;99207.28;4984370;28;20198;-66
2022/11/17 00:50:08;;;;;;;15.30;10.13;;;;;;;-0.29;73.76;99199.69;4989865;28;20042;-66
2022/11/17 00:52:33;;;;;;;15.60;8.70;;;;;;;-0.28;73.01;99192.94;5003121;28;20046;-65
2022/11/17 00:54:59;;;;;;;11.68;8.85;;;;;;;-0.25;74.19;99195.50;4984617;28;20035;-66
2022/11/17 00:57:24;;;;;;;16.02;9.57;;;;;;;-0.30;74.82;99192.03;4984442;28;20038;-66
2022/11/17 00:59:50;;;;;;;14.43;8.45;;;;;;;-0.37;71.66;99191.97;4984559;28;20042;-65
2022/11/17 01:02:16;;;;;;;11.75;8.23;;;;;;;-0.36;72.15;99183.50;4990673;28;20037;-65
2022/11/17 01:04:41;;;;;;;17.52;8.77;;;;;;;-0.44;70.66;99184.19;5002269;28;20022;-65
2022/11/17 01:07:07;;;;;;;12.82;8.43;;;;;;;-0.41;71.51;99186.81;4984183;28;20027;-65
2022/11/17 01:09:32;;;;;;;11.77;8.75;;;;;;;-0.46;71.51;99184.19;4970798;28;20031;-64
2022/11/17 01:11:58;;;;;;;13.45;8.95;;;;;;;-0.40;71.92;99184.28;4977031;28;20026;-65
2022/11/17 01:14:27;;;;;;;14.63;8.93;;;;;;;-0.37;72.18;99191.09;4983956;28;20085;-66
2022/11/17 01:16:54;;;;;;;18.08;9.40;;;;;;;-0.43;71.84;99184.25;4984341;28;20065;-66
2022/11/17 01:19:21;;;;;;;13.27;8.93;;;;;;;-0.44;71.95;99174.91;4984305;28;20031;-66
2022/11/17 01:21:46;;;;;;;11.75;8.65;;;;;;;-0.35;72.49;99169.94;4984270;28;20035;-66
2022/11/17 01:24:14;;;;;;;13.70;10.27;;;;;;;-0.36;71.97;99159.72;4985687;28;20034;-68
2022/11/17 01:26:41;;;;;;;15.88;10.18;;;;;;;-0.37;72.09;99158.88;4984042;28;20057;-65
2022/11/17 01:29:09;;;;;;;15.35;9.98;;;;;;;-0.36;71.60;99158.06;4984223;28;20093;-66
2022/11/17 01:31:39;;;;;;;15.57;10.63;;;;;;;-0.44;70.60;99140.97;4983898;28;20110;-66
2022/11/17 01:34:05;;;;;;;15.55;11.57;;;;;;;-0.56;69.99;99160.28;4984145;28;20023;-67
2022/11/17 01:39:18;;;;;;;16.17;10.57;;;;;;;-0.63;69.69;99153.41;4983961;28;20026;-67
2022/11/17 01:41:43;;;;;;;15.65;10.15;;;;;;;-0.63;69.83;99150.88;4983997;28;20045;-66
2022/11/17 01:44:37;;;;;;;15.25;10.82;;;;;;;-0.49;72.20;99150.22;4984102;28;20027;-65
2022/11/17 01:47:04;;;;;;;17.27;10.45;;;;;;;-0.45;71.57;99147.75;4984046;28;20062;-65
2022/11/17 01:49:31;;;;;;;16.77;11.07;;;;;;;-0.45;71.23;99141.81;4984049;28;20034;-65
2022/11/17 01:52:04;;;;;;;17.33;11.15;;;;;;;-0.40;70.98;99147.81;4969255;29;20058;-66
2022/11/17 01:54:33;;;;;;;20.42;12.23;;;;;;;-0.48;71.17;99117.19;4983933;28;20042;-66
2022/11/17 01:57:08;;;;;;;14.57;9.70;;;;;;;-0.48;71.15;99129.91;4987997;28;20034;-65
2022/11/17 01:59:45;;;;;;;12.88;10.55;;;;;;;-0.59;70.46;99123.81;4987800;28;20030;-64
2022/11/17 02:02:11;;;;;;;14.18;10.10;;;;;;;-0.44;71.24;99138.41;4987564;28;20027;-65
2022/11/17 02:04:39;;;;;;;14.73;10.43;;;;;;;-0.56;71.78;99111.97;4987627;28;20042;-65
2022/11/17 02:07:08;;;;;;;16.40;10.05;;;;;;;-0.39;72.31;99132.56;4987623;28;20215;-66
2022/11/17 02:09:38;;;;;;;16.48;11.02;;;;;;;-0.43;71.82;99129.97;4986811;28;20089;-65
2022/11/17 02:12:08;;;;;;;14.95;10.48;;;;;;;-0.71;71.55;99119.41;4987384;28;20102;-65
2022/11/17 02:14:34;;;;;;;17.15;10.15;;;;;;;-0.63;71.53;99127.97;4987169;28;20039;-66
2022/11/17 02:17:02;;;;;;;16.80;10.27;;;;;;;-0.48;72.58;99127.38;4987458;28;20034;-65
2022/11/17 02:19:34;;;;;;;16.63;10.13;;;;;;;-0.55;72.45;99128.97;4986251;28;20041;-66
2022/11/17 02:22:35;;;;;;;14.88;9.98;;;;;;;-0.56;72.33;99127.22;4968257;28;20311;-67
2022/11/17 02:25:28;;;;;;;16.90;9.95;;;;;;;-0.51;72.76;99132.41;4979735;28;20055;-66
2022/11/17 02:28:05;;;;;;;16.10;9.65;;;;;;;-0.55;73.18;99123.03;4986549;28;20046;-65
2022/11/17 02:31:03;;;;;;;13.77;9.77;;;;;;;-0.64;71.66;99105.09;4987028;28;20045;-64
2022/11/17 02:33:37;;;;;;;22.67;10.52;;;;;;;-0.62;72.46;99121.22;4986795;28;20031;-65
2022/11/17 02:36:17;;;;;;;15.60;9.55;;;;;;;-0.67;72.74;99118.63;4981234;28;20035;-65
2022/11/17 02:39:16;;;;;;;14.73;10.00;;;;;;;-0.80;72.59;99089.59;4976762;28;20038;-65
2022/11/17 02:41:53;;;;;;;17.63;9.10;;;;;;;-0.61;72.96;99115.31;4986921;28;20039;-65
2022/11/17 02:44:28;;;;;;;16.10;10.00;;;;;;;-0.59;72.81;99103.47;4986886;28;20062;-65
2022/11/17 02:47:19;;;;;;;13.57;9.80;;;;;;;-0.68;73.04;99101.66;4985704;28;20349;-65
2022/11/17 02:50:01;;;;;;;18.90;10.57;;;;;;;-0.75;73.03;99088.00;4986820;28;20065;-66
2022/11/17 02:52:29;;;;;;;13.60;8.85;;;;;;;-0.63;73.15;99091.53;4986231;28;20252;-66
2022/11/17 02:55:05;;;;;;;13.63;9.57;;;;;;;-0.64;73.64;99084.75;4986672;28;20031;-66
2022/11/17 02:57:40;;;;;;;15.43;9.10;;;;;;;-0.63;74.64;99081.38;4985445;28;20102;-65
2022/11/17 03:00:10;;;;;;;12.05;9.07;;;;;;;-0.61;74.10;99069.56;4986536;28;20037;-66
2022/11/17 03:02:57;;;;;;;14.68;9.57;;;;;;;-0.55;73.38;99088.25;4994505;28;20068;-68
2022/11/17 03:05:35;;;;;;;17.77;10.43;;;;;;;-0.91;72.45;99064.03;4999736;28;20035;-65
2022/11/17 03:08:44;;;;;;;14.38;9.77;;;;;;;-0.76;73.20;99085.44;4986516;28;20026;-65
2022/11/17 03:11:10;;;;;;;15.15;10.07;;;;;;;-0.72;73.17;99082.09;4986691;28;20031;-67
2022/11/17 03:13:53;;;;;;;15.52;10.27;;;;;;;-0.74;74.06;99058.31;4986499;28;20050;-66
2022/11/17 03:16:37;;;;;;;18.90;10.90;;;;;;;-1.15;74.44;99066.22;4967195;28;20216;-66
2022/11/17 03:19:05;;;;;;;16.35;10.70;;;;;;;-1.06;75.30;99082.44;4967048;28;20061;-66
2022/11/17 03:21:40;;;;;;;16.02;10.93;;;;;;;-0.98;75.45;99082.56;4981986;28;20035;-66
2022/11/17 03:24:27;;;;;;;17.48;10.88;;;;;;;-1.12;75.26;99066.28;4988576;28;20026;-65
2022/11/17 03:26:59;;;;;;;16.38;11.18;;;;;;;-0.91;76.72;99098.78;4986098;28;20022;-66
2022/11/17 03:29:29;;;;;;;17.83;11.23;;;;;;;-1.12;77.48;99066.28;4992323;28;20101;-65
2022/11/17 03:31:59;;;;;;;18.30;12.18;;;;;;;-1.35;78.69;99097.22;5003463;28;20026;-65
2022/11/17 03:34:30;;;;;;;19.35;11.55;;;;;;;-1.52;78.88;99069.00;4986285;28;20053;-64
2022/11/17 03:37:01;;;;;;;18.33;11.18;;;;;;;-1.41;78.69;99064.09;4973532;28;20105;-66
2022/11/17 03:39:29;;;;;;;16.57;11.93;;;;;;;-1.44;79.44;99087.78;4966490;28;20038;-66
2022/11/17 03:42:03;;;;;;;19.83;12.40;;;;;;;-1.78;81.20;99066.88;4976889;28;20098;-66
2022/11/17 03:44:33;;;;;;;17.17;11.50;;;;;;;-1.64;80.85;99079.81;4985707;28;20030;-66
2022/11/17 03:47:03;;;;;;;19.05;13.23;;;;;;;-1.56;80.98;99060.47;4985295;28;20069;-66
2022/11/17 03:50:00;;;;;;;20.10;12.77;;;;;;;-1.60;80.75;99075.63;4985758;28;20073;-65
2022/11/17 03:52:28;;;;;;;18.05;11.52;;;;;;;-1.54;82.01;99072.34;4966681;28;20370;-65
2022/11/17 03:54:54;;;;;;;42.08;22.23;;;;;;;-1.47;80.76;99072.50;4983934;28;20085;-64
2022/11/17 03:57:30;;;;;;;19.17;12.70;;;;;;;-1.42;80.88;99042.94;4998130;28;20097;-65
2022/11/17 04:00:09;;;;;;;19.05;12.68;;;;;;;-1.20;81.53;99063.59;4994734;28;20381;-66
2022/11/17 04:02:35;;;;;;;18.48;12.75;;;;;;;-1.18;81.93;99059.41;4985173;28;20049;-65
2022/11/17 04:05:04;;;;;;;21.88;13.98;;;;;;;-1.72;82.19;99063.59;4985445;28;20039;-66
2022/11/17 04:07:41;;;;;;;23.90;14.68;;;;;;;-1.98;83.93;99051.28;4985315;28;20222;-67
2022/11/17 04:10:10;;;;;;;22.25;15.23;;;;;;;-1.86;83.06;99050.66;4983953;28;20046;-66
2022/11/17 04:18:05;;;;;;;24.85;16.25;;;;;;;-2.08;84.50;99060.41;4985412;28;20043;-64
2022/11/17 04:20:37;;;;;;;24.23;16.13;;;;;;;-1.91;83.43;99065.78;4984905;28;20061;-65
2022/11/17 04:23:22;;;;;;;25.90;16.90;;;;;;;-1.78;84.74;99060.91;4987878;28;20043;-67
2022/11/17 04:28:37;;;;;;;25.48;16.02;;;;;;;-1.96;83.13;99047.09;4997215;28;20042;-65
2022/11/17 04:31:05;;;;;;;22.90;15.05;;;;;;;-1.88;82.29;99056.50;4985245;28;20062;-64
2022/11/17 04:33:31;;;;;;;24.23;15.18;;;;;;;-2.15;84.50;99065.31;4984646;28;20031;-65
2022/11/17 04:35:57;;;;;;;22.77;15.35;;;;;;;-2.11;84.29;99065.41;4984590;28;20068;-65
2022/11/17 04:38:22;;;;;;;21.92;14.60;;;;;;;-2.10;83.97;99062.03;4984551;28;20026;-66
2022/11/17 04:43:32;;;;;;;27.23;15.68;;;;;;;-2.01;83.91;99066.47;4987159;28;20030;-65
2022/11/17 04:45:59;;;;;;;19.90;13.98;;;;;;;-2.32;83.91;99060.78;4993325;28;20053;-67
2022/11/17 04:48:25;;;;;;;25.42;14.55;;;;;;;-2.29;83.88;99063.38;4993558;28;20299;-67
2022/11/17 04:50:55;;;;;;;21.50;15.32;;;;;;;-2.18;84.02;99062.72;4992269;28;20050;-68
2022/11/17 04:53:23;;;;;;;24.65;15.15;;;;;;;-2.50;84.39;99063.78;4996582;28;20069;-68
2022/11/17 04:55:49;;;;;;;28.83;15.10;;;;;;;-2.29;85.04;99060.81;4993561;28;20053;-66
2022/11/17 04:58:15;;;;;;;27.40;15.15;;;;;;;-2.41;84.92;99063.09;4993502;28;20030;-66
2022/11/17 05:00:40;;;;;;;25.50;15.98;;;;;;;-2.33;84.15;99058.22;4984160;28;20033;-65
2022/11/17 05:03:06;;;;;;;23.67;14.95;;;;;;;-2.49;84.67;99057.06;4984378;28;20034;-67
2022/11/17 05:05:32;;;;;;;19.70;14.07;;;;;;;-2.39;85.33;99069.09;4990438;28;20101;-64
2022/11/17 05:07:58;;;;;;;23.00;14.93;;;;;;;-2.63;86.12;99065.19;5000882;28;20088;-65
2022/11/17 05:13:20;;;;;;;21.00;15.15;;;;;;;-2.58;86.00;99070.34;4964732;28;20039;-65
2022/11/17 05:13:24;;;;;;;27.20;14.68;;;;;;;-2.65;86.00;99066.84;4984089;28;20311;-65
2022/11/17 05:18:41;;;;;;;22.70;14.50;;;;;;;-2.53;86.37;99067.94;4983861;28;20039;-64
2022/11/17 05:21:08;;;;;;;24.10;15.43;;;;;;;-2.45;86.13;99071.50;4984087;28;20030;-64
2022/11/17 05:26:18;;;;;;;23.67;14.65;;;;;;;-2.46;87.10;99062.19;4983379;28;20037;-65
2022/11/17 05:28:45;;;;;;;29.83;16.90;;;;;;;-2.38;86.60;99058.13;4984153;28;20031;-66
2022/11/17 05:31:10;;;;;;;22.30;15.20;;;;;;;-2.22;86.71;99056.75;4983881;28;20139;-66
2022/11/17 05:33:36;;;;;;;27.35;15.30;;;;;;;-2.29;86.16;99060.81;4983680;28;20034;-67
2022/11/17 05:36:03;;;;;;;27.15;15.00;;;;;;;-2.56;85.77;99060.28;4984140;28;20062;-65
2022/11/17 05:38:28;;;;;;;22.45;14.63;;;;;;;-2.46;85.79;99064.72;4983663;28;20393;-64
2022/11/17 05:40:54;;;;;;;23.13;14.90;;;;;;;-2.49;85.32;99057.91;4983538;28;20038;-66
2022/11/17 05:43:19;;;;;;;24.77;15.18;;;;;;;-2.54;85.40;99059.47;4983974;28;20035;-66
2022/11/17 05:45:45;;;;;;;22.73;15.75;;;;;;;-2.39;85.73;99071.63;4983909;28;20200;-65
2022/11/17 05:48:11;;;;;;;23.98;15.50;;;;;;;-2.43;85.75;99060.53;4984037;28;20034;-66
2022/11/17 05:50:37;;;;;;;23.42;15.13;;;;;;;-2.51;85.49;99068.81;4990158;28;20362;-65
2022/11/17 05:53:03;;;;;;;29.05;15.93;;;;;;;-2.35;85.88;99059.84;5001265;28;20263;-64
2022/11/17 05:55:28;;;;;;;23.65;14.95;;;;;;;-2.24;85.48;99062.59;4983313;28;20316;-67
2022/11/17 05:57:57;;;;;;;25.85;16.10;;;;;;;-2.31;84.91;99061.63;4986365;28;20026;-66
2022/11/17 06:00:23;;;;;;;22.58;15.73;;;;;;;-2.26;84.73;99060.88;4982959;28;20038;-66
2022/11/17 06:03:01;;;;;;;24.52;15.88;;;;;;;-2.10;84.70;99056.97;4983314;28;20030;-66
2022/11/17 06:05:26;;;;;;;25.50;15.20;;;;;;;-2.23;84.46;99064.31;4983560;28;20023;-66
2022/11/17 06:07:54;;;;;;;20.85;15.27;;;;;;;-2.52;84.35;99022.34;4983813;28;20101;-66
2022/11/17 06:10:19;;;;;;;22.05;16.00;;;;;;;-2.15;85.03;99065.31;4985194;28;20046;-65
2022/11/17 06:12:46;;;;;;;23.17;15.35;;;;;;;-2.29;84.67;99062.53;4991982;28;20053;-65
2022/11/17 06:15:12;;;;;;;24.67;16.58;;;;;;;-2.36;84.67;99065.75;4992112;28;20015;-67
2022/11/17 06:18:18;;;;;;;19.63;14.80;;;;;;;-2.63;84.23;99049.16;5022397;28;20018;-67
2022/11/17 06:20:49;;;;;;;22.05;16.48;;;;;;;-2.77;84.48;99048.84;4990776;28;20096;-66
2022/11/17 06:23:17;;;;;;;23.90;16.60;;;;;;;-2.79;85.13;99050.50;4993195;28;20026;-66
2022/11/17 06:25:43;;;;;;;21.60;15.60;;;;;;;-2.67;84.50;99060.88;4992716;28;20029;-66
2022/11/17 06:28:12;;;;;;;23.70;17.15;;;;;;;-2.79;84.83;99065.72;4994689;28;20031;-66
2022/11/17 06:30:39;;;;;;;20.75;16.55;;;;;;;-2.90;85.29;99070.53;4991124;28;20046;-66
2022/11/17 06:33:09;;;;;;;21.90;15.93;;;;;;;-2.84;84.85;99044.47;4993592;28;20027;-65
2022/11/17 06:35:35;;;;;;;24.10;17.73;;;;;;;-2.81;85.42;99063.16;4993646;28;20026;-65
2022/11/17 06:38:01;;;;;;;25.60;17.83;;;;;;;-2.89;84.49;99066.31;4997675;28;20064;-64
2022/11/17 06:40:27;;;;;;;22.67;16.02;;;;;;;-2.80;84.12;99066.53;5006313;28;20373;-65
2022/11/17 06:43:07;;;;;;;23.08;16.48;;;;;;;-2.69;83.79;99065.06;5023166;28;20039;-65
2022/11/17 06:45:36;;;;;;;23.92;16.83;;;;;;;-2.46;83.79;99068.09;4995876;28;20126;-65
2022/11/17 06:48:03;;;;;;;20.40;15.65;;;;;;;-2.19;83.15;99066.94;4996577;28;20034;-66
2022/11/17 06:50:29;;;;;;;22.55;16.67;;;;;;;-2.29;82.50;99070.97;4991690;28;20042;-66
2022/11/17 06:53:02;;;;;;;19.27;14.82;;;;;;;-2.51;82.07;99063.75;4986491;28;20303;-66
2022/11/17 06:55:27;;;;;;;21.90;14.85;;;;;;;-2.45;82.37;99067.28;4986534;28;20038;-66
2022/11/17 06:58:07;;;;;;;22.70;16.27;;;;;;;-2.63;82.62;99050.00;4986990;28;20037;-67
2022/11/17 07:00:35;;;;;;;21.20;15.63;;;;;;;-2.46;83.23;99067.25;4993647;28;20050;-66
2022/11/17 07:03:09;;;;;;;21.63;14.77;;;;;;;-2.38;81.90;99044.56;4989351;28;20040;-66
2022/11/17 07:05:36;;;;;;;23.02;16.38;;;;;;;-2.47;81.72;99051.16;4988642;28;20030;-66
2022/11/17 07:08:05;;;;;;;23.23;16.23;;;;;;;-2.22;82.72;99066.00;4986327;28;20041;-66
2022/11/17 07:10:32;;;;;;;21.75;15.57;;;;;;;-2.65;83.22;99063.44;4986237;28;20188;-67
2022/11/17 07:12:58;;;;;;;23.45;15.88;;;;;;;-2.27;82.32;99073.53;4986358;28;20130;-67
2022/11/17 07:15:24;;;;;;;21.35;16.02;;;;;;;-2.17;82.53;99074.59;4989522;28;20081;-66
2022/11/17 07:17:50;;;;;;;23.98;15.35;;;;;;;-2.14;81.98;99069.56;4993999;28;20039;-66
2022/11/17 07:20:16;;;;;;;19.38;15.35;;;;;;;-2.15;81.58;99063.66;4996310;28;20047;-70
2022/11/17 07:22:43;;;;;;;20.75;15.32;;;;;;;-1.99;81.20;99069.03;4996323;28;20306;-65
2022/11/17 07:25:09;;;;;;;17.73;14.10;;;;;;;-2.19;81.61;99064.41;4994176;28;20022;-66
2022/11/17 07:27:35;;;;;;;24.23;14.88;;;;;;;-2.36;81.94;99058.16;5027875;28;20030;-66
2022/11/17 07:30:03;;;;;;;16.98;13.50;;;;;;;-2.12;81.13;99060.31;5025500;28;20027;-66
2022/11/17 07:32:32;;;;;;;23.42;16.20;;;;;;;-2.07;81.15;99048.56;4995607;28;20028;-66
2022/11/17 07:34:58;;;;;;;20.20;15.85;;;;;;;-2.21;80.53;99077.88;4994690;28;20027;-67
2022/11/17 07:37:24;;;;;;;21.20;15.10;;;;;;;-2.40;81.69;99072.44;4995937;28;20036;-67
2022/11/17 07:39:50;;;;;;;22.55;17.02;;;;;;;-1.98;81.21;99076.66;4994217;28;20235;-66
2022/11/17 07:42:15;;;;;;;23.42;16.23;;;;;;;-2.44;81.58;99071.53;4994503;28;20033;-66
2022/11/17 07:44:41;;;;;;;27.15;16.35;;;;;;;-2.08;81.37;99078.16;4994191;28;20311;-66
2022/11/17 07:47:06;;;;;;;20.80;16.33;;;;;;;-2.13;80.61;99074.66;4995052;28;20034;-65
2022/11/17 07:49:32;;;;;;;23.00;17.67;;;;;;;-2.13;80.34;99083.97;4995120;28;20030;-66
2022/11/17 07:51:58;;;;;;;25.50;17.23;;;;;;;-1.99;80.35;99074.94;4995627;28;20043;-65
2022/11/17 07:54:23;;;;;;;24.45;17.17;;;;;;;-1.94;79.57;99078.44;4984407;28;20030;-66
2022/11/17 07:56:49;;;;;;;22.67;17.25;;;;;;;-2.29;81.07;99080.28;4985522;28;20038;-66
2022/11/17 07:59:14;;;;;;;25.02;18.50;;;;;;;-2.14;81.29;99078.03;5020690;28;20113;-66
2022/11/17 08:01:41;;;;;;;28.40;19.33;;;;;;;-2.03;80.20;99080.78;4996650;28;20091;-66
2022/11/17 08:04:06;;;;;;;23.60;17.67;;;;;;;-2.19;80.00;99076.25;4993822;28;20031;-66
2022/11/17 08:06:32;;;;;;;23.50;16.98;;;;;;;-2.06;79.58;99090.88;4988672;28;20296;-65
2022/11/17 08:08:58;;;;;;;22.85;16.85;;;;;;;-2.32;79.95;99063.31;4994514;28;20023;-65
2022/11/17 08:11:23;;;;;;;21.92;13.98;;;;;;;-2.55;80.00;99072.97;4995022;28;20078;-65
2022/11/17 08:13:49;;;;;;;22.13;14.35;;;;;;;-2.22;79.76;99078.69;4990785;28;20031;-66
2022/11/17 08:16:15;;;;;;;18.63;12.93;;;;;;;-2.37;80.08;99084.31;4993747;28;20043;-66
2022/11/17 08:18:41;;;;;;;19.98;13.38;;;;;;;-2.57;80.28;99068.69;4990002;28;20028;-65
2022/11/17 08:21:15;;;;;;;16.60;12.80;;;;;;;-2.47;79.51;99066.38;4991865;28;20049;-66
2022/11/17 08:23:41;;;;;;;16.50;12.15;;;;;;;-2.11;79.68;99074.69;4991095;28;20030;-64
2022/11/17 08:26:09;;;;;;;13.35;9.35;;;;;;;-2.49;77.68;99057.06;4992382;28;20052;-64
2022/11/17 08:28:36;;;;;;;13.40;9.05;;;;;;;-2.66;79.62;99059.22;4993382;28;20031;-66
2022/11/17 08:31:03;;;;;;;11.63;8.85;;;;;;;-2.64;79.24;99068.59;4995679;28;20104;-66
2022/11/17 08:33:29;;;;;;;14.02;9.35;;;;;;;-2.48;79.80;99069.75;4993452;28;20393;-67
2022/11/17 08:36:00;;;;;;;13.23;9.65;;;;;;;-2.22;77.58;99076.16;4992783;28;20035;-66
2022/11/17 08:38:29;;;;;;;15.27;9.45;;;;;;;-2.28;78.40;99072.69;4994812;28;20041;-65
2022/11/17 08:41:00;;;;;;;12.77;9.95;;;;;;;-2.22;78.30;99077.03;4993356;28;20268;-66
2022/11/17 08:43:26;;;;;;;13.93;10.65;;;;;;;-2.06;78.82;99068.03;4993393;28;20064;-68
2022/11/17 08:45:52;;;;;;;12.98;9.73;;;;;;;-2.15;77.82;99062.78;4996308;28;20030;-65
2022/11/17 08:48:17;;;;;;;13.05;9.18;;;;;;;-2.14;78.01;99059.41;4985834;28;20030;-65
2022/11/17 08:50:43;;;;;;;12.20;8.50;;;;;;;-2.17;77.14;99072.03;4992312;28;20046;-65
2022/11/17 08:53:13;;;;;;;11.25;8.80;;;;;;;-2.34;77.39;99051.41;4992425;28;20282;-68
2022/11/17 08:55:39;;;;;;;10.32;7.80;;;;;;;-2.17;77.34;99064.44;4994195;28;20093;-65
2022/11/17 08:58:05;;;;;;;11.82;7.85;;;;;;;-2.20;76.65;99066.91;4995008;28;20026;-65
2022/11/17 09:00:31;;;;;;;10.25;7.68;;;;;;;-2.38;77.24;99058.13;4993430;28;20035;-66
2022/11/17 09:02:56;;;;;;;11.45;7.45;;;;;;;-2.28;77.26;99064.22;4994083;28;20026;-66
2022/11/17 09:05:23;;;;;;;11.45;7.00;;;;;;;-2.56;77.29;99066.19;5000878;28;20040;-66
2022/11/17 09:07:49;;;;;;;10.98;7.43;;;;;;;-2.06;76.64;99060.44;4984341;28;20038;-65
2022/11/17 09:10:15;;;;;;;11.57;8.88;;;;;;;-2.02;76.64;99056.25;4983886;28;20334;-65
2022/11/17 09:12:41;;;;;;;12.68;8.85;;;;;;;-2.16;76.89;99045.88;4984400;28;20066;-66
2022/11/17 09:15:08;;;;;;;12.10;8.63;;;;;;;-2.10;78.21;99056.97;4983880;28;20219;-66
2022/11/17 09:17:33;;;;;;;12.60;9.40;;;;;;;-2.06;77.42;99057.03;4983884;28;20031;-65
2022/11/17 09:19:59;;;;;;;10.88;8.10;;;;;;;-2.16;76.69;99053.47;4984227;28;20040;-65
2022/11/17 09:22:24;;;;;;;8.98;6.13;;;;;;;-2.33;76.62;99068.34;4984429;28;20046;-66
2022/11/17 09:24:50;;;;;;;6.72;5.60;;;;;;;-2.38;76.17;99059.78;4990851;28;20030;-65
2022/11/17 09:27:16;;;;;;;6.35;5.22;;;;;;;-2.49;76.10;99055.34;4984075;28;20026;-65
2022/11/17 09:29:42;;;;;;;10.05;6.97;;;;;;;-2.37;76.46;99051.38;4985612;28;20206;-66
2022/11/17 09:32:07;;;;;;;10.73;6.60;;;;;;;-2.54;76.63;99056.94;4992479;28;20037;-65
2022/11/17 09:34:33;;;;;;;7.70;6.22;;;;;;;-2.43;75.99;99052.94;4993880;28;20084;-65
2022/11/17 09:36:58;;;;;;;9.20;6.47;;;;;;;-2.40;76.65;99056.38;4993301;28;20030;-66
2022/11/17 09:39:24;;;;;;;9.85;6.88;;;;;;;-2.11;76.66;99050.19;4991132;28;20035;-66
2022/11/17 09:41:53;;;;;;;11.40;8.15;;;;;;;-2.17;75.85;99021.31;4993348;28;20027;-66
2022/11/17 09:44:53;;;;;;;8.75;7.55;;;;;;;-2.05;76.21;99051.13;4987517;28;20031;-66
2022/11/17 09:47:31;;;;;;;9.05;6.07;;;;;;;-2.41;76.05;99047.91;4988033;28;20227;-65
2022/11/17 09:50:23;;;;;;;9.57;6.90;;;;;;;-2.27;75.60;99036.38;4989062;28;20053;-66
2022/11/17 09:52:54;;;;;;;10.10;6.40;;;;;;;-2.14;75.58;99046.72;4991190;28;20369;-66
2022/11/17 09:55:38;;;;;;;7.30;5.30;;;;;;;-2.37;76.79;99038.69;4988915;28;20049;-66
2022/11/17 09:58:32;;;;;;;9.73;5.50;;;;;;;-2.29;76.68;99044.78;4993414;28;20037;-66
2022/11/17 10:00:59;;;;;;;8.05;5.03;;;;;;;-2.29;76.72;99042.22;4991739;28;20077;-67
2022/11/17 10:03:29;;;;;;;11.80;4.93;;;;;;;-2.23;76.85;99033.91;4991990;28;20354;-65
2022/11/17 10:05:55;;;;;;;10.05;4.82;;;;;;;-2.24;76.16;99043.16;4988581;28;20101;-68
2022/11/17 10:08:52;;;;;;;8.45;5.22;;;;;;;-2.36;75.82;99017.59;4993415;28;20026;-65
2022/11/17 10:11:32;;;;;;;6.68;3.97;;;;;;;-2.06;74.95;99045.22;4992989;28;20030;-65
2022/11/17 10:14:06;;;;;;;5.40;3.83;;;;;;;-2.38;73.64;98999.81;4994804;28;20319;-66
2022/11/17 10:16:33;;;;;;;7.63;4.97;;;;;;;-1.91;74.02;99042.09;4997519;28;20018;-67
2022/11/17 10:19:08;;;;;;;7.40;4.70;;;;;;;-2.07;73.95;99043.50;4994107;28;20038;-65
2022/11/17 10:21:36;;;;;;;4.35;3.58;;;;;;;-2.14;74.16;99022.25;4994596;28;20049;-65
2022/11/17 10:24:02;;;;;;;7.50;4.50;;;;;;;-1.88;73.40;99053.97;4995331;28;20077;-66
2022/11/17 10:26:27;;;;;;;5.78;4.00;;;;;;;-1.91;73.27;99050.56;4997462;28;20034;-66
2022/11/17 10:29:12;;;;;;;4.55;3.53;;;;;;;-2.24;73.48;99053.31;4996867;28;20046;-66
2022/11/17 10:31:44;;;;;;;6.68;3.55;;;;;;;-2.28;72.68;99027.06;4977750;28;20331;-66
2022/11/17 10:34:11;;;;;;;;;;;;;;;-2.07;72.41;99046.03;4994286;28;20019;-66
2022/11/17 10:36:45;;;;;;;5.75;3.60;;;;;;;-2.17;72.63;99054.28;4994263;28;20103;-65
2022/11/17 10:39:35;;;;;;;5.18;4.22;;;;;;;-2.12;72.95;99050.19;4987033;28;20034;-65
2022/11/17 10:42:16;;;;;;;4.70;4.00;;;;;;;-1.95;74.19;99053.03;4987006;28;20041;-65
2022/11/17 10:44:43;;;;;;;5.25;4.13;;;;;;;-1.82;73.22;99046.50;4986843;28;20069;-65
2022/11/17 10:47:26;;;;;;;6.32;4.47;;;;;;;-1.91;73.34;99022.66;4986647;28;20058;-65
2022/11/17 10:50:20;;;;;;;12.32;4.75;;;;;;;-1.78;73.43;99043.16;4987104;28;20234;-66
2022/11/17 10:52:47;;;;;;;6.60;4.45;;;;;;;-2.00;73.53;99042.78;4965158;28;20051;-65
2022/11/17 10:55:22;;;;;;;5.97;4.85;;;;;;;-2.13;74.51;99044.22;4984349;28;20022;-65
2022/11/17 10:57:54;;;;;;;6.90;5.43;;;;;;;-2.05;74.75;99046.06;4986664;28;20062;-65
2022/11/17 11:00:31;;;;;;;8.25;5.15;;;;;;;-2.03;74.76;99042.72;4995799;28;20026;-66
2022/11/17 11:03:17;;;;;;;10.18;5.65;;;;;;;-2.07;76.33;99035.88;5006147;28;20061;-66
2022/11/17 11:05:57;;;;;;;6.50;5.63;;;;;;;-2.06;75.79;99027.44;5002839;28;20034;-66
2022/11/17 11:08:28;;;;;;;10.20;6.75;;;;;;;-2.13;76.31;99021.41;4986301;28;20311;-66
2022/11/17 11:10:57;;;;;;;10.20;7.35;;;;;;;-2.01;76.54;99043.63;4994795;28;20034;-66
2022/11/17 11:13:31;;;;;;;8.68;6.88;;;;;;;-2.09;77.72;99052.75;4997180;28;20023;-67
2022/11/17 11:15:56;;;;;;;9.07;6.55;;;;;;;-2.33;77.56;99048.06;4994151;28;20022;-65
2022/11/17 11:18:22;;;;;;;7.82;5.93;;;;;;;-2.37;77.29;99042.06;4996532;28;20037;-65
2022/11/17 11:20:58;;;;;;;8.13;5.85;;;;;;;-2.29;76.91;99049.84;4985105;28;20033;-66
2022/11/17 11:23:43;;;;;;;9.95;6.13;;;;;;;-2.33;77.47;99053.97;4992511;28;20042;-67
2022/11/17 11:26:11;;;;;;;7.57;5.45;;;;;;;-2.39;77.56;99048.81;4993871;28;20049;-68
2022/11/17 11:28:56;;;;;;;9.73;6.18;;;;;;;-2.48;77.54;99046.06;4996923;28;20247;-66
2022/11/17 11:31:40;;;;;;;7.60;6.07;;;;;;;-2.29;77.26;99052.38;4995395;28;20348;-65
2022/11/17 11:34:44;;;;;;;6.65;5.65;;;;;;;-2.21;76.46;99045.75;4995235;28;20030;-66
2022/11/17 11:37:12;;;;;;;7.43;5.70;;;;;;;-2.10;76.16;99046.81;4999203;28;20307;-66
2022/11/17 11:40:14;;;;;;;7.00;5.43;;;;;;;-2.10;75.38;99056.97;4990919;28;20035;-68
2022/11/17 11:42:56;;;;;;;5.40;4.45;;;;;;;-2.40;74.21;99051.31;4984909;28;20034;-66
2022/11/17 11:45:40;;;;;;;5.80;4.18;;;;;;;-2.53;75.22;99055.28;4985800;28;20130;-66
2022/11/17 11:48:26;;;;;;;6.60;5.05;;;;;;;-2.31;75.41;99049.81;4990092;28;20279;-65
2022/11/17 11:50:57;;;;;;;7.15;4.45;;;;;;;-2.41;74.94;99047.06;4988675;28;20053;-66
2022/11/17 11:53:33;;;;;;;8.75;5.25;;;;;;;-2.30;75.13;99030.38;4995360;28;20106;-65
2022/11/17 11:56:21;;;;;;;6.53;4.78;;;;;;;-2.55;74.84;99055.25;4992979;28;20034;-65
2022/11/17 11:59:01;;;;;;;6.43;4.45;;;;;;;-2.52;74.10;99046.81;4994677;28;20030;-66
2022/11/17 12:01:34;;;;;;;5.95;4.05;;;;;;;-2.90;74.88;99054.47;4991438;28;20026;-65
2022/11/17 12:04:30;;;;;;;5.65;4.43;;;;;;;-2.45;74.39;99056.28;4992984;28;20019;-66
2022/11/17 12:07:24;;;;;;;6.35;4.88;;;;;;;-2.30;74.17;99055.72;4991528;28;20031;-66